createdAt,value
2019-03-16T00:01:08.189Z,10.75
2019-03-16T00:03:38.874Z,10.72
2019-03-16T00:06:09.684Z,10.70
2019-03-16T00:08:40.359Z,10.68
2019-03-16T00:11:11.126Z,10.64
2019-03-16T00:13:41.761Z,10.61
2019-03-16T00:16:12.919Z,10.58
2019-03-16T00:18:43.952Z,10.56
2019-03-16T00:21:14.725Z,10.58
2019-03-16T00:23:45.364Z,10.58
2019-03-16T00:26:19.161Z,10.55
2019-03-16T00:28:51.736Z,10.53
2019-03-16T00:31:22.475Z,10.52
2019-03-16T00:33:53.101Z,10.52
2019-03-16T00:36:23.810Z,10.53
2019-03-16T00:38:54.479Z,10.50
2019-03-16T00:41:27.888Z,10.52
2019-03-16T00:44:00.550Z,10.49
2019-03-16T00:46:31.616Z,10.46
2019-03-16T00:49:04.037Z,10.46
2019-03-16T00:51:36.847Z,10.46
2019-03-16T00:54:07.764Z,10.46
2019-03-16T00:56:41.701Z,10.48
2019-03-16T00:59:12.520Z,10.51
2019-03-16T01:01:43.726Z,10.52
2019-03-16T01:04:14.388Z,10.51
2019-03-16T01:06:45.126Z,10.49
2019-03-16T01:09:15.863Z,10.50
2019-03-16T01:11:46.535Z,10.53
2019-03-16T01:14:17.596Z,10.52
2019-03-16T01:16:48.740Z,10.50
2019-03-16T01:19:19.340Z,10.48
2019-03-16T01:21:50.554Z,10.50
2019-03-16T01:24:21.188Z,10.49
2019-03-16T01:26:52.262Z,10.48
2019-03-16T01:29:23.202Z,10.48
2019-03-16T01:31:54.319Z,10.49
2019-03-16T01:34:25.370Z,10.50
2019-03-16T01:36:56.503Z,10.51
2019-03-16T01:39:27.695Z,10.49
2019-03-16T01:41:58.384Z,10.50
2019-03-16T01:44:29.020Z,10.53
2019-03-16T01:46:59.747Z,10.52
2019-03-16T01:49:30.448Z,10.54
2019-03-16T01:52:01.384Z,10.55
2019-03-16T01:54:32.574Z,10.53
2019-03-16T01:57:03.808Z,10.52
2019-03-16T01:59:34.756Z,10.52
2019-03-16T02:02:05.399Z,10.53
2019-03-16T02:04:36.451Z,10.53
2019-03-16T02:07:07.175Z,10.55
2019-03-16T02:09:38.109Z,10.55
2019-03-16T02:12:08.864Z,10.59
2019-03-16T02:14:39.942Z,10.66
2019-03-16T02:17:10.693Z,10.67
2019-03-16T02:19:44.624Z,10.67
2019-03-16T02:22:15.294Z,10.61
2019-03-16T02:24:45.987Z,10.59
2019-03-16T02:27:16.911Z,10.57
2019-03-16T02:29:47.560Z,10.59
2019-03-16T02:32:18.613Z,10.58
2019-03-16T02:34:49.926Z,10.58
2019-03-16T02:37:20.612Z,10.60
2019-03-16T02:39:51.648Z,10.64
2019-03-16T02:42:22.273Z,10.64
2019-03-16T02:44:54.656Z,10.66
2019-03-16T02:47:25.408Z,10.65
2019-03-16T02:49:56.543Z,10.66
2019-03-16T02:52:27.315Z,10.66
2019-03-16T02:54:58.125Z,10.66
2019-03-16T02:57:28.777Z,10.67
2019-03-16T02:59:59.400Z,10.67
2019-03-16T03:02:30.406Z,10.68
2019-03-16T03:05:01.168Z,10.68
2019-03-16T03:07:32.203Z,10.73
2019-03-16T03:10:03.169Z,10.75
2019-03-16T03:12:34.173Z,10.78
2019-03-16T03:15:07.438Z,10.78
2019-03-16T03:17:38.215Z,10.77
2019-03-16T03:20:09.150Z,10.72
2019-03-16T03:22:40.239Z,10.72
2019-03-16T03:25:11.034Z,10.72
2019-03-16T03:27:41.738Z,10.74
2019-03-16T03:30:12.385Z,10.72
2019-03-16T03:32:43.913Z,10.72
2019-03-16T03:35:14.697Z,10.75
2019-03-16T03:37:45.438Z,10.75
2019-03-16T03:40:16.253Z,10.70
2019-03-16T03:42:47.361Z,10.62
2019-03-16T03:45:20.806Z,10.56
2019-03-16T03:47:52.762Z,10.52
2019-03-16T03:50:23.649Z,10.46
2019-03-16T03:52:54.323Z,10.39
2019-03-16T03:55:24.873Z,10.34
2019-03-16T03:57:56.015Z,10.29
2019-03-16T04:00:26.699Z,10.30
2019-03-16T04:02:57.370Z,10.30
2019-03-16T04:05:28.098Z,10.29
2019-03-16T04:07:58.745Z,10.30
2019-03-16T04:10:29.400Z,10.31
2019-03-16T04:13:00.109Z,10.31
2019-03-16T04:15:30.770Z,10.32
2019-03-16T04:18:01.407Z,10.39
2019-03-16T04:20:32.071Z,10.45
2019-03-16T04:23:02.747Z,10.46
2019-03-16T04:25:34.000Z,10.49
2019-03-16T04:28:04.731Z,10.48
2019-03-16T04:30:35.449Z,10.52
2019-03-16T04:33:06.205Z,10.56
2019-03-16T04:35:36.838Z,10.58
2019-03-16T04:38:07.530Z,10.60
2019-03-16T04:40:38.762Z,10.57
2019-03-16T04:43:09.491Z,10.57
2019-03-16T04:45:41.961Z,10.59
2019-03-16T04:48:15.093Z,10.58
2019-03-16T04:50:46.022Z,10.58
2019-03-16T04:53:17.098Z,10.56
2019-03-16T04:55:47.834Z,10.57
2019-03-16T04:58:18.583Z,10.58
2019-03-16T05:00:49.403Z,10.59
2019-03-16T05:03:24.338Z,10.59
2019-03-16T05:05:55.360Z,10.57
2019-03-16T05:08:26.087Z,10.55
2019-03-16T05:10:57.176Z,10.55
2019-03-16T05:13:29.449Z,10.54
2019-03-16T05:16:01.615Z,10.56
2019-03-16T05:18:32.313Z,10.60
2019-03-16T05:21:05.061Z,10.60
2019-03-16T05:23:37.371Z,10.61
2019-03-16T05:26:08.269Z,10.61
2019-03-16T05:28:40.364Z,10.61
2019-03-16T05:31:11.024Z,10.66
2019-03-16T05:33:41.754Z,10.69
2019-03-16T05:36:18.777Z,10.68
2019-03-16T05:38:50.011Z,10.73
2019-03-16T05:41:23.402Z,10.68
2019-03-16T05:43:54.497Z,10.68
2019-03-16T05:46:26.477Z,10.72
2019-03-16T05:48:59.841Z,10.76
2019-03-16T05:51:31.155Z,10.76
2019-03-16T05:54:06.191Z,10.76
2019-03-16T05:56:37.002Z,10.78
2019-03-16T05:59:09.330Z,10.82
2019-03-16T06:01:41.642Z,10.78
2019-03-16T06:04:14.341Z,10.77
2019-03-16T06:06:51.617Z,10.79
2019-03-16T06:09:22.751Z,10.79
2019-03-16T06:11:54.704Z,10.81
2019-03-16T06:14:25.403Z,10.84
2019-03-16T06:16:56.351Z,10.87
2019-03-16T06:19:28.433Z,10.85
2019-03-16T06:22:01.977Z,10.87
2019-03-16T06:24:35.313Z,10.86
2019-03-16T06:27:08.504Z,10.91
2019-03-16T06:29:41.515Z,10.87
2019-03-16T06:32:14.162Z,10.88
2019-03-16T06:34:46.394Z,10.95
2019-03-16T06:37:21.286Z,10.98
2019-03-16T06:39:52.066Z,11.00
2019-03-16T06:42:24.057Z,11.00
2019-03-16T06:44:57.322Z,11.05
2019-03-16T06:47:32.422Z,11.09
2019-03-16T06:50:03.137Z,11.11
2019-03-16T06:52:35.664Z,11.10
2019-03-16T06:55:06.576Z,11.11
2019-03-16T06:57:39.345Z,11.15
2019-03-16T07:00:11.443Z,11.20
2019-03-16T07:02:46.592Z,11.31
2019-03-16T07:05:21.915Z,11.33
2019-03-16T07:07:51.224Z,11.40
2019-03-16T07:10:22.005Z,11.50
2019-03-16T07:12:57.379Z,11.56
2019-03-16T07:15:29.950Z,11.60
2019-03-16T07:18:00.677Z,11.61
2019-03-16T07:20:35.278Z,11.65
2019-03-16T07:23:08.977Z,11.65
2019-03-16T07:25:44.519Z,11.65
2019-03-16T07:28:18.346Z,11.65
2019-03-16T07:30:52.814Z,11.70
2019-03-16T07:33:23.540Z,11.79
2019-03-16T07:35:54.217Z,11.80
2019-03-16T07:38:31.745Z,11.79
2019-03-16T07:41:07.461Z,11.88
2019-03-16T07:43:38.204Z,11.97
2019-03-16T07:46:08.968Z,12.02
2019-03-16T07:48:39.590Z,12.07
2019-03-16T07:51:12.946Z,12.09
2019-03-16T07:53:43.745Z,12.04
2019-03-16T07:56:19.686Z,11.95
2019-03-16T07:58:56.453Z,11.96
2019-03-16T08:01:28.739Z,11.95
2019-03-16T08:03:59.961Z,12.05
2019-03-16T08:06:33.924Z,12.01
2019-03-16T08:09:05.389Z,11.99
2019-03-16T08:11:42.836Z,11.99
2019-03-16T08:14:13.790Z,11.94
2019-03-16T08:16:52.478Z,11.83
2019-03-16T08:19:23.461Z,11.74
2019-03-16T08:21:56.928Z,11.71
2019-03-16T08:24:34.235Z,11.73
2019-03-16T08:27:07.838Z,11.69
2019-03-16T08:29:41.512Z,11.68
2019-03-16T08:32:12.620Z,11.72
2019-03-16T08:34:47.651Z,11.79
2019-03-16T08:37:29.605Z,11.77
2019-03-16T08:40:03.225Z,11.79
2019-03-16T08:42:51.272Z,11.76
2019-03-16T08:45:27.793Z,11.73
2019-03-16T08:48:07.171Z,11.69
2019-03-16T08:50:51.169Z,11.73
2019-03-16T08:53:28.887Z,11.70
2019-03-16T08:56:03.739Z,11.52
2019-03-16T08:58:46.759Z,11.51
2019-03-16T09:01:34.478Z,11.36
2019-03-16T09:04:08.737Z,11.28
2019-03-16T09:06:59.058Z,11.26
2019-03-16T09:09:44.828Z,11.21
2019-03-16T09:12:17.101Z,11.22
2019-03-16T09:14:56.385Z,11.05
2019-03-16T09:17:35.565Z,11.03
2019-03-16T09:20:14.649Z,11.04
2019-03-16T09:23:04.262Z,11.05
2019-03-16T09:25:46.409Z,11.05
2019-03-16T09:28:22.830Z,11.05
2019-03-16T09:31:50.497Z,10.96
2019-03-16T09:34:14.431Z,10.95
2019-03-16T09:37:16.499Z,10.93
2019-03-16T09:40:33.173Z,10.90
2019-03-16T09:43:11.015Z,10.85
2019-03-16T09:45:48.257Z,10.74
2019-03-16T09:48:14.857Z,10.78
2019-03-16T09:50:46.510Z,10.95
2019-03-16T09:53:22.110Z,11.08
2019-03-16T09:56:17.599Z,11.15
2019-03-16T09:58:49.158Z,11.09
2019-03-16T10:01:27.666Z,11.10
2019-03-16T10:04:06.848Z,11.15
2019-03-16T10:06:50.035Z,11.19
2019-03-16T10:09:23.227Z,11.14
2019-03-16T10:11:56.307Z,11.18
2019-03-16T10:15:01.264Z,11.15
2019-03-16T10:17:25.098Z,11.09
2019-03-16T10:20:20.524Z,11.17
2019-03-16T10:22:53.385Z,11.10
2019-03-16T10:25:32.569Z,11.06
2019-03-16T10:28:10.684Z,11.09
2019-03-16T10:30:47.771Z,11.05
2019-03-16T10:33:23.705Z,10.92
2019-03-16T10:35:54.852Z,11.01
2019-03-16T10:38:28.227Z,11.22
2019-03-16T10:41:01.347Z,11.32
2019-03-16T10:43:48.096Z,11.24
2019-03-16T10:46:40.138Z,11.04
2019-03-16T10:49:14.002Z,11.05
2019-03-16T10:51:44.925Z,11.07
2019-03-16T10:54:28.369Z,11.05
2019-03-16T10:57:04.571Z,11.02
2019-03-16T10:59:41.164Z,11.03
2019-03-16T11:02:21.987Z,10.95
2019-03-16T11:05:05.419Z,10.96
2019-03-16T11:07:38.821Z,10.98
2019-03-16T11:11:26.297Z,11.10
2019-03-16T11:14:43.191Z,11.05
2019-03-16T11:17:21.775Z,10.99
2019-03-16T11:20:51.846Z,11.07
2019-03-16T11:29:46.502Z,11.24
2019-03-16T11:32:26.885Z,11.25
2019-03-16T11:35:02.625Z,11.33
2019-03-16T11:37:38.329Z,11.43
2019-03-16T11:40:19.611Z,11.45
2019-03-16T11:42:58.645Z,11.42
2019-03-16T11:45:30.138Z,11.43
2019-03-16T11:48:08.878Z,11.55
2019-03-16T11:50:43.155Z,11.62
2019-03-16T11:53:21.936Z,11.52
2019-03-16T11:56:00.439Z,11.52
2019-03-16T11:58:33.539Z,11.47
2019-03-16T12:01:10.726Z,11.30
2019-03-16T12:03:57.958Z,11.20
2019-03-16T12:06:28.811Z,11.14
2019-03-16T12:09:01.713Z,11.03
2019-03-16T12:11:33.978Z,11.00
2019-03-16T12:14:05.890Z,10.98
2019-03-16T12:16:52.091Z,11.01
2019-03-16T12:19:30.549Z,11.00
2019-03-16T12:22:02.818Z,11.05
2019-03-16T12:24:35.150Z,11.19
2019-03-16T12:27:05.982Z,11.25
2019-03-16T12:29:36.870Z,11.39
2019-03-16T12:32:10.413Z,11.55
2019-03-16T12:34:41.259Z,11.63
2019-03-16T12:37:12.104Z,11.76
2019-03-16T12:39:46.416Z,11.90
2019-03-16T12:42:18.845Z,12.02
2019-03-16T12:44:49.916Z,12.09
2019-03-16T12:47:20.609Z,12.19
2019-03-16T12:49:53.568Z,12.18
2019-03-16T12:52:26.047Z,12.21
2019-03-16T12:55:00.499Z,12.21
2019-03-16T12:57:34.510Z,12.23
2019-03-16T13:00:10.526Z,12.32
2019-03-16T13:02:44.023Z,12.28
2019-03-16T13:05:15.094Z,12.26
2019-03-16T13:07:51.113Z,12.21
2019-03-16T13:10:25.805Z,12.32
2019-03-16T13:12:57.729Z,12.44
2019-03-16T13:15:28.705Z,12.49
2019-03-16T13:18:15.701Z,12.52
2019-03-16T13:20:51.406Z,12.61
2019-03-16T13:23:48.104Z,12.76
2019-03-16T13:26:23.495Z,12.76
2019-03-16T13:29:05.616Z,12.74
2019-03-16T13:31:43.839Z,12.67
2019-03-16T13:34:14.275Z,12.66
2019-03-16T13:37:08.407Z,12.68
2019-03-16T13:39:46.204Z,12.76
2019-03-16T13:42:30.664Z,12.83
2019-03-16T13:45:38.099Z,12.85
2019-03-16T13:48:09.049Z,12.92
2019-03-16T13:50:47.201Z,12.95
2019-03-16T13:53:36.977Z,12.94
2019-03-16T13:56:09.681Z,12.94
2019-03-16T13:59:43.052Z,12.97
2019-03-16T14:01:30.572Z,13.04
2019-03-16T14:04:03.177Z,13.09
2019-03-16T14:06:37.511Z,13.17
2019-03-16T14:09:26.894Z,13.25
2019-03-16T14:16:06.455Z,13.26
2019-03-16T14:19:06.605Z,13.23
2019-03-16T14:22:02.426Z,13.28
2019-03-16T14:24:37.960Z,13.32
2019-03-16T14:27:33.217Z,13.31
2019-03-16T14:30:00.501Z,13.33
2019-03-16T14:32:40.873Z,13.39
2019-03-16T14:35:19.219Z,13.43
2019-03-16T14:37:53.515Z,13.45
2019-03-16T14:40:35.403Z,13.42
2019-03-16T14:43:11.545Z,13.44
2019-03-16T14:45:44.775Z,13.49
2019-03-16T14:48:27.241Z,13.57
2019-03-16T14:51:08.066Z,13.62
2019-03-16T14:53:43.001Z,13.73
2019-03-16T14:56:26.793Z,13.82
2019-03-16T14:59:00.500Z,13.95
2019-03-16T15:01:40.347Z,14.06
2019-03-16T15:04:20.042Z,14.12
2019-03-16T15:06:53.539Z,14.20
2019-03-16T15:09:27.695Z,14.28
2019-03-16T15:12:04.123Z,14.34
2019-03-16T15:14:51.290Z,14.40
2019-03-16T15:17:25.304Z,14.40
2019-03-16T15:19:59.637Z,14.42
2019-03-16T15:22:37.605Z,14.42
2019-03-16T15:25:11.314Z,14.42
2019-03-16T15:27:42.515Z,14.41
2019-03-16T15:30:19.720Z,14.44
2019-03-16T15:36:02.993Z,14.52
2019-03-16T15:38:35.507Z,14.61
2019-03-16T15:41:11.173Z,14.58
2019-03-16T15:43:51.544Z,14.53
2019-03-16T15:46:32.277Z,14.54
2019-03-16T15:49:08.438Z,14.50
2019-03-16T15:51:45.776Z,14.54
2019-03-16T15:54:23.437Z,14.58
2019-03-16T15:56:57.379Z,14.59
2019-03-16T15:59:28.543Z,14.62
2019-03-16T16:01:59.500Z,14.64
2019-03-16T16:04:32.091Z,14.63
2019-03-16T16:07:11.612Z,14.62
2019-03-16T16:09:51.148Z,14.60
2019-03-16T16:12:35.155Z,14.59
2019-03-16T16:15:13.408Z,14.57
2019-03-16T16:17:46.559Z,14.57
2019-03-16T16:20:22.894Z,14.44
2019-03-16T16:22:58.604Z,14.43
2019-03-16T16:26:07.332Z,14.43
2019-03-16T16:28:09.898Z,14.44
2019-03-16T16:30:41.136Z,14.41
2019-03-16T16:33:14.024Z,14.40
2019-03-16T16:35:48.138Z,14.40
2019-03-16T16:38:21.306Z,14.38
2019-03-16T16:41:00.134Z,14.38
2019-03-16T16:43:31.616Z,14.37
2019-03-16T16:46:07.191Z,14.36
2019-03-16T16:48:38.115Z,14.40
2019-03-16T16:51:09.419Z,14.41
2019-03-16T16:53:41.819Z,14.42
2019-03-16T16:56:42.355Z,14.43
2019-03-16T16:59:22.811Z,14.41
2019-03-16T17:01:53.914Z,14.40
2019-03-16T17:04:31.550Z,14.37
2019-03-16T17:07:10.920Z,14.32
2019-03-16T17:09:49.508Z,14.36
2019-03-16T17:12:29.596Z,14.35
2019-03-16T17:15:07.906Z,14.22
2019-03-16T17:17:45.793Z,14.18
2019-03-16T17:20:19.598Z,14.19
2019-03-16T17:22:58.161Z,14.16
2019-03-16T17:28:31.161Z,14.11
2019-03-16T17:31:25.657Z,14.13
2019-03-16T17:37:03.749Z,14.10
2019-03-16T17:39:40.628Z,14.17
2019-03-16T17:46:12.722Z,14.17
2019-03-16T17:48:31.309Z,14.17
2019-03-16T17:51:29.675Z,14.19
2019-03-16T17:54:27.890Z,14.14
2019-03-16T17:57:14.227Z,14.16
2019-03-16T18:00:08.261Z,14.11
2019-03-16T18:02:51.237Z,14.08
2019-03-16T18:05:59.960Z,14.07
2019-03-16T18:12:11.956Z,14.10
2019-03-16T18:19:03.823Z,14.02
2019-03-16T18:21:22.315Z,14.02
2019-03-16T18:24:40.925Z,14.05
2019-03-16T18:27:12.206Z,14.01
2019-03-16T18:30:07.258Z,14.05
2019-03-16T18:32:43.249Z,14.00
2019-03-16T18:35:40.787Z,13.99
2019-03-16T18:38:12.787Z,13.98
2019-03-16T18:40:46.903Z,13.94
2019-03-16T18:43:42.657Z,13.89
2019-03-16T18:49:37.522Z,13.86
2019-03-16T18:52:15.044Z,13.86
2019-03-16T18:58:17.452Z,13.89
2019-03-16T19:00:50.318Z,13.89
2019-03-16T19:03:41.380Z,13.92
2019-03-16T19:06:32.447Z,13.89
2019-03-16T19:09:59.470Z,13.85
2019-03-16T19:12:19.646Z,13.73
2019-03-16T19:15:25.229Z,13.74
2019-03-16T19:18:02.195Z,13.73
2019-03-16T19:21:47.351Z,13.70
2019-03-16T19:24:50.802Z,13.64
2019-03-16T19:27:29.145Z,13.60
2019-03-16T19:30:31.476Z,13.66
2019-03-16T19:36:59.994Z,13.59
2019-03-16T19:39:37.896Z,13.56
2019-03-16T19:42:54.617Z,13.58
2019-03-16T19:45:30.809Z,13.56
2019-03-16T19:48:07.477Z,13.53
2019-03-16T19:50:46.873Z,13.46
2019-03-16T19:53:34.146Z,13.45
2019-03-16T19:56:08.846Z,13.44
2019-03-16T19:58:39.452Z,13.44
2019-03-16T20:01:21.384Z,13.45
2019-03-16T20:04:02.560Z,13.45
2019-03-16T20:06:35.841Z,13.43
2019-03-16T20:09:14.647Z,13.40
2019-03-16T20:11:52.747Z,13.43
2019-03-16T20:14:38.255Z,13.41
2019-03-16T20:18:10.837Z,13.42
2019-03-16T20:21:17.885Z,13.39
2019-03-16T20:24:38.060Z,13.35
2019-03-16T20:27:49.737Z,13.32
2019-03-16T20:31:16.310Z,13.31
2019-03-16T20:38:35.168Z,13.28
2019-03-16T20:45:10.535Z,13.30
2019-03-16T20:49:00.690Z,13.34
2019-03-16T20:51:34.667Z,13.29
2019-03-16T20:54:09.763Z,13.31
2019-03-16T20:57:01.482Z,13.34
2019-03-16T20:59:39.706Z,13.38
2019-03-16T21:02:14.288Z,13.40
2019-03-16T21:04:46.432Z,13.38
2019-03-16T21:07:38.200Z,13.31
2019-03-16T21:10:27.231Z,13.27
2019-03-16T21:13:35.809Z,13.24
2019-03-16T21:16:03.645Z,13.19
2019-03-16T21:18:53.523Z,13.12
2019-03-16T21:22:35.466Z,13.06
2019-03-16T21:27:41.893Z,12.95
2019-03-16T21:30:26.103Z,12.95
2019-03-16T21:33:10.298Z,12.93
2019-03-16T21:35:49.236Z,12.89
2019-03-16T21:39:07.056Z,12.86
2019-03-16T21:42:04.196Z,12.78
2019-03-16T21:53:05.502Z,12.62
2019-03-16T21:55:37.345Z,12.52
2019-03-16T21:58:22.834Z,12.54
2019-03-16T22:01:11.891Z,12.56
2019-03-16T22:03:51.122Z,12.55
2019-03-16T22:06:34.783Z,12.61
2019-03-16T22:09:29.379Z,12.64
2019-03-16T22:12:04.801Z,12.64
2019-03-16T22:14:44.915Z,12.66
2019-03-16T22:17:42.360Z,12.64
2019-03-16T22:20:42.004Z,12.64
2019-03-16T22:23:31.290Z,12.60
2019-03-16T22:26:14.737Z,12.60
2019-03-16T22:28:57.308Z,12.60
2019-03-16T22:31:58.091Z,12.62
2019-03-16T22:34:32.781Z,12.66
2019-03-16T22:37:10.777Z,12.65
2019-03-16T22:39:52.218Z,12.67
2019-03-16T22:42:30.849Z,12.66
2019-03-16T22:45:19.593Z,12.61
2019-03-16T22:47:59.767Z,12.54
2019-03-16T22:50:37.987Z,12.49
2019-03-16T22:53:34.239Z,12.45
2019-03-16T22:56:10.841Z,12.43
2019-03-16T22:58:57.671Z,12.41
2019-03-16T23:01:39.294Z,12.41
2019-03-16T23:04:37.711Z,12.44
2019-03-16T23:07:46.540Z,12.42
2019-03-16T23:10:21.498Z,12.29
2019-03-16T23:13:07.145Z,12.30
2019-03-16T23:15:52.271Z,12.27
2019-03-16T23:18:30.992Z,12.20
2019-03-16T23:21:08.961Z,12.17
2019-03-16T23:23:46.538Z,12.24
2019-03-16T23:26:18.354Z,12.28
2019-03-16T23:28:55.895Z,12.33
2019-03-16T23:31:32.914Z,12.34
2019-03-16T23:34:18.695Z,12.38
2019-03-16T23:36:41.994Z,12.35
2019-03-16T23:39:12.998Z,12.35
2019-03-16T23:41:44.144Z,12.41
2019-03-16T23:44:18.925Z,12.50
2019-03-16T23:46:55.654Z,12.57
2019-03-16T23:49:30.880Z,12.56
2019-03-16T23:52:06.927Z,12.57
2019-03-16T23:54:37.801Z,12.53
2019-03-16T23:57:27.108Z,12.43
